sensor_id;sensor_type;location;lat;lon;timestamp;pressure;altitude;pressure_sealevel;temperature;humidity
5296;BME280;2670;42.720;23.336;2023-04-01T00:01:24;-22736.53;;;10.12;84.18
5296;BME280;2670;42.720;23.336;2023-04-01T00:03:51;-22738.78;;;10.20;83.36
5296;BME280;2670;42.720;23.336;2023-04-01T00:06:19;-22737.88;;;10.17;84.01
5296;BME280;2670;42.720;23.336;2023-04-01T00:08:47;-22739.22;;;10.21;83.21
5296;BME280;2670;42.720;23.336;2023-04-01T00:11:14;-22738.91;;;10.20;82.21
5296;BME280;2670;42.720;23.336;2023-04-01T00:13:41;-22732.25;;;9.97;84.21
5296;BME280;2670;42.720;23.336;2023-04-01T00:16:09;-22734.75;;;10.06;84.42
5296;BME280;2670;42.720;23.336;2023-04-01T00:18:35;-22734.63;;;10.06;84.62
5296;BME280;2670;42.720;23.336;2023-04-01T00:21:02;-22738.19;;;10.18;83.57
5296;BME280;2670;42.720;23.336;2023-04-01T00:23:29;-22737.88;;;10.17;84.35
5296;BME280;2670;42.720;23.336;2023-04-01T00:25:58;-22741.28;;;10.29;83.55
5296;BME280;2670;42.720;23.336;2023-04-01T00:28:26;-22738.31;;;10.18;84.00
5296;BME280;2670;42.720;23.336;2023-04-01T00:30:53;-22742.47;;;10.33;82.53
5296;BME280;2670;42.720;23.336;2023-04-01T00:33:19;-22741.13;;;10.28;83.45
5296;BME280;2670;42.720;23.336;2023-04-01T00:35:46;-22742.47;;;10.33;84.03
5296;BME280;2670;42.720;23.336;2023-04-01T00:38:13;-22742.03;;;10.31;84.17
5296;BME280;2670;42.720;23.336;2023-04-01T00:40:43;-22742.31;;;10.32;84.48
5296;BME280;2670;42.720;23.336;2023-04-01T00:43:14;-22746.19;;;10.45;83.60
5296;BME280;2670;42.720;23.336;2023-04-01T00:45:44;-22743.06;;;10.35;83.36
5296;BME280;2670;42.720;23.336;2023-04-01T00:48:13;-22743.06;;;10.35;84.95
5296;BME280;2670;42.720;23.336;2023-04-01T00:50:44;-22743.06;;;10.35;85.41
5296;BME280;2670;42.720;23.336;2023-04-01T00:53:12;-22743.50;;;10.36;85.03
5296;BME280;2670;42.720;23.336;2023-04-01T00:55:45;-22742.78;;;10.34;85.20
5296;BME280;2670;42.720;23.336;2023-04-01T00:58:17;-22743.81;;;10.37;85.08
5296;BME280;2670;42.720;23.336;2023-04-01T01:00:46;-22742.63;;;10.33;85.01
5296;BME280;2670;42.720;23.336;2023-04-01T01:03:15;-22741.13;;;10.28;85.90
5296;BME280;2670;42.720;23.336;2023-04-01T01:06:00;-22742.91;;;10.34;84.95
5296;BME280;2670;42.720;23.336;2023-04-01T01:08:39;-22742.19;;;10.32;84.69
5296;BME280;2670;42.720;23.336;2023-04-01T01:11:10;-22737.72;;;10.16;86.42
5296;BME280;2670;42.720;23.336;2023-04-01T01:13:45;-22735.50;;;10.09;86.50
5296;BME280;2670;42.720;23.336;2023-04-01T01:16:23;-22738.78;;;10.20;85.35
5296;BME280;2670;42.720;23.336;2023-04-01T01:18:58;-22734.03;;;10.04;85.90
5296;BME280;2670;42.720;23.336;2023-04-01T01:21:38;-22739.94;;;10.24;84.78
5296;BME280;2670;42.720;23.336;2023-04-01T01:24:21;-22735.38;;;10.08;85.77
5296;BME280;2670;42.720;23.336;2023-04-01T01:27:00;-22740.25;;;10.25;83.83
5296;BME280;2670;42.720;23.336;2023-04-01T01:33:15;-22734.19;;;10.04;87.17
5296;BME280;2670;42.720;23.336;2023-04-01T01:35:49;-22733.13;;;10.01;87.65
5296;BME280;2670;42.720;23.336;2023-04-01T01:38:18;-22733.56;;;10.02;87.13
5296;BME280;2670;42.720;23.336;2023-04-01T01:40:49;-22733.56;;;10.02;87.19
5296;BME280;2670;42.720;23.336;2023-04-01T01:43:21;-22734.91;;;10.07;87.01
5296;BME280;2670;42.720;23.336;2023-04-01T01:45:52;-22733.88;;;10.03;87.03
5296;BME280;2670;42.720;23.336;2023-04-01T01:48:20;-22732.53;;;9.98;87.14
5296;BME280;2670;42.720;23.336;2023-04-01T01:50:50;-22733.72;;;10.03;86.79
5296;BME280;2670;42.720;23.336;2023-04-01T01:53:17;-22734.75;;;10.06;86.70
5296;BME280;2670;42.720;23.336;2023-04-01T01:55:45;-22734.19;;;10.04;86.42
5296;BME280;2670;42.720;23.336;2023-04-01T01:58:16;-22731.94;;;9.96;87.24
5296;BME280;2670;42.720;23.336;2023-04-01T02:00:48;-22734.03;;;10.04;85.54
5296;BME280;2670;42.720;23.336;2023-04-01T02:03:17;-22731.22;;;9.94;86.87
5296;BME280;2670;42.720;23.336;2023-04-01T02:05:46;-22732.53;;;9.98;87.07
5296;BME280;2670;42.720;23.336;2023-04-01T02:08:17;-22733.00;;;10.00;86.37
5296;BME280;2670;42.720;23.336;2023-04-01T02:10:52;-22731.81;;;9.96;87.35
5296;BME280;2670;42.720;23.336;2023-04-01T02:13:25;-22730.47;;;9.91;88.16
5296;BME280;2670;42.720;23.336;2023-04-01T02:15:56;-22733.44;;;10.02;87.45
5296;BME280;2670;42.720;23.336;2023-04-01T02:18:25;-22729.28;;;9.87;87.98
5296;BME280;2670;42.720;23.336;2023-04-01T02:20:52;-22724.25;;;9.70;88.36
5296;BME280;2670;42.720;23.336;2023-04-01T02:23:22;-22725.13;;;9.73;88.90
5296;BME280;2670;42.720;23.336;2023-04-01T02:25:49;-22721.88;;;9.62;90.30
5296;BME280;2670;42.720;23.336;2023-04-01T02:28:17;-22725.13;;;9.73;89.69
5296;BME280;2670;42.720;23.336;2023-04-01T02:30:46;-22726.16;;;9.77;88.73
5296;BME280;2670;42.720;23.336;2023-04-01T02:33:17;-22722.03;;;9.62;90.78
5296;BME280;2670;42.720;23.336;2023-04-01T02:35:43;-22725.44;;;9.74;88.97
5296;BME280;2670;42.720;23.336;2023-04-01T02:38:10;-22722.47;;;9.64;89.86
5296;BME280;2670;42.720;23.336;2023-04-01T02:40:47;-22717.41;;;9.46;89.44
5296;BME280;2670;42.720;23.336;2023-04-01T02:43:14;-22715.50;;;9.40;89.43
5296;BME280;2670;42.720;23.336;2023-04-01T02:45:41;-22712.09;;;9.28;90.37
5296;BME280;2670;42.720;23.336;2023-04-01T02:48:08;-22710.91;;;9.24;91.73
5296;BME280;2670;42.720;23.336;2023-04-01T02:50:35;-22708.06;;;9.14;91.38
5296;BME280;2670;42.720;23.336;2023-04-01T02:53:03;-22707.19;;;9.11;91.51
5296;BME280;2670;42.720;23.336;2023-04-01T02:55:31;-22704.38;;;9.02;92.77
5296;BME280;2670;42.720;23.336;2023-04-01T02:57:59;-22707.63;;;9.13;91.54
5296;BME280;2670;42.720;23.336;2023-04-01T03:00:26;-22702.59;;;8.95;92.17
5296;BME280;2670;42.720;23.336;2023-04-01T03:02:53;-22702.88;;;8.96;91.60
5296;BME280;2670;42.720;23.336;2023-04-01T03:05:20;-22702.59;;;8.95;91.80
5296;BME280;2670;42.720;23.336;2023-04-01T03:07:47;-22704.81;;;9.03;91.28
5296;BME280;2670;42.720;23.336;2023-04-01T03:10:14;-22702.44;;;8.95;91.61
5296;BME280;2670;42.720;23.336;2023-04-01T03:12:41;-22699.03;;;8.83;92.88
5296;BME280;2670;42.720;23.336;2023-04-01T03:15:10;-22703.19;;;8.97;91.53
5296;BME280;2670;42.720;23.336;2023-04-01T03:17:39;-22695.16;;;8.70;93.51
5296;BME280;2670;42.720;23.336;2023-04-01T03:20:07;-22693.38;;;8.64;94.52
5296;BME280;2670;42.720;23.336;2023-04-01T03:22:34;-22695.16;;;8.70;94.93
5296;BME280;2670;42.720;23.336;2023-04-01T03:25:00;-22699.03;;;8.83;94.84
5296;BME280;2670;42.720;23.336;2023-04-01T03:27:27;-22699.63;;;8.85;94.54
5296;BME280;2670;42.720;23.336;2023-04-01T03:29:54;-22703.78;;;9.00;93.13
5296;BME280;2670;42.720;23.336;2023-04-01T03:32:22;-22700.66;;;8.89;94.13
5296;BME280;2670;42.720;23.336;2023-04-01T03:34:49;-22704.06;;;9.01;95.59
5296;BME280;2670;42.720;23.336;2023-04-01T03:37:15;-22705.25;;;9.05;95.21
5296;BME280;2670;42.720;23.336;2023-04-01T03:39:42;-22706.44;;;9.09;95.86
5296;BME280;2670;42.720;23.336;2023-04-01T03:42:09;-22708.38;;;9.15;97.43
5296;BME280;2670;42.720;23.336;2023-04-01T03:44:35;-22711.50;;;9.26;97.78
5296;BME280;2670;42.720;23.336;2023-04-01T03:47:02;-22713.41;;;9.33;100.00
5296;BME280;2670;42.720;23.336;2023-04-01T03:49:30;-22708.38;;;9.15;100.00
5296;BME280;2670;42.720;23.336;2023-04-01T03:51:58;-22708.66;;;9.16;100.00
5296;BME280;2670;42.720;23.336;2023-04-01T03:54:24;-22711.50;;;9.26;100.00
5296;BME280;2670;42.720;23.336;2023-04-01T03:56:51;-22713.84;;;9.34;100.00
5296;BME280;2670;42.720;23.336;2023-04-01T03:59:18;-22712.22;;;9.29;100.00
5296;BME280;2670;42.720;23.336;2023-04-01T04:01:46;-22711.50;;;9.26;100.00
5296;BME280;2670;42.720;23.336;2023-04-01T04:04:14;-22711.50;;;9.26;100.00
5296;BME280;2670;42.720;23.336;2023-04-01T04:06:42;-22710.44;;;9.22;100.00
5296;BME280;2670;42.720;23.336;2023-04-01T04:09:09;-22708.06;;;9.14;100.00
5296;BME280;2670;42.720;23.336;2023-04-01T04:11:36;-22709.41;;;9.19;100.00
5296;BME280;2670;42.720;23.336;2023-04-01T04:14:02;-22711.19;;;9.25;100.00
5296;BME280;2670;42.720;23.336;2023-04-01T04:16:29;-22708.81;;;9.17;100.00
5296;BME280;2670;42.720;23.336;2023-04-01T04:18:56;-22708.81;;;9.17;100.00
5296;BME280;2670;42.720;23.336;2023-04-01T04:21:23;-22706.16;;;9.08;100.00
5296;BME280;2670;42.720;23.336;2023-04-01T04:23:51;-22705.41;;;9.05;100.00
5296;BME280;2670;42.720;23.336;2023-04-01T04:26:18;-22706.88;;;9.10;100.00
5296;BME280;2670;42.720;23.336;2023-04-01T04:28:44;-22707.47;;;9.12;100.00
5296;BME280;2670;42.720;23.336;2023-04-01T04:31:11;-22707.03;;;9.11;100.00
5296;BME280;2670;42.720;23.336;2023-04-01T04:33:38;-22705.84;;;9.07;100.00
5296;BME280;2670;42.720;23.336;2023-04-01T04:36:05;-22704.50;;;9.02;100.00
5296;BME280;2670;42.720;23.336;2023-04-01T04:38:32;-22709.72;;;9.20;100.00
5296;BME280;2670;42.720;23.336;2023-04-01T04:41:00;-22709.41;;;9.19;100.00
5296;BME280;2670;42.720;23.336;2023-04-01T04:43:27;-22707.34;;;9.12;100.00
5296;BME280;2670;42.720;23.336;2023-04-01T04:45:54;-22710.44;;;9.22;100.00
5296;BME280;2670;42.720;23.336;2023-04-01T04:48:20;-22711.94;;;9.28;100.00
5296;BME280;2670;42.720;23.336;2023-04-01T04:50:48;-22714.59;;;9.37;100.00
5296;BME280;2670;42.720;23.336;2023-04-01T04:53:17;-22715.50;;;9.40;99.79
5296;BME280;2670;42.720;23.336;2023-04-01T04:55:44;-22713.13;;;9.32;100.00
5296;BME280;2670;42.720;23.336;2023-04-01T04:58:12;-22708.81;;;9.17;100.00
5296;BME280;2670;42.720;23.336;2023-04-01T05:00:39;-22710.91;;;9.24;100.00
5296;BME280;2670;42.720;23.336;2023-04-01T05:03:06;-22709.41;;;9.19;99.54
5296;BME280;2670;42.720;23.336;2023-04-01T05:05:32;-22709.84;;;9.20;100.00
5296;BME280;2670;42.720;23.336;2023-04-01T05:07:59;-22712.22;;;9.29;100.00
5296;BME280;2670;42.720;23.336;2023-04-01T05:10:26;-22710.91;;;9.24;100.00
5296;BME280;2670;42.720;23.336;2023-04-01T05:12:53;-22709.13;;;9.18;100.00
5296;BME280;2670;42.720;23.336;2023-04-01T05:15:21;-22710.44;;;9.22;100.00
5296;BME280;2670;42.720;23.336;2023-04-01T05:17:48;-22710.91;;;9.24;100.00
5296;BME280;2670;42.720;23.336;2023-04-01T05:20:14;-22710.75;;;9.23;100.00
5296;BME280;2670;42.720;23.336;2023-04-01T05:22:41;-22710.31;;;9.22;100.00
5296;BME280;2670;42.720;23.336;2023-04-01T05:25:09;-22716.22;;;9.42;100.00
5296;BME280;2670;42.720;23.336;2023-04-01T05:27:36;-22711.94;;;9.28;100.00
5296;BME280;2670;42.720;23.336;2023-04-01T05:30:03;-22713.72;;;9.34;100.00
5296;BME280;2670;42.720;23.336;2023-04-01T05:32:32;-22711.34;;;9.26;100.00
5296;BME280;2670;42.720;23.336;2023-04-01T05:34:58;-22711.50;;;9.26;100.00
5296;BME280;2670;42.720;23.336;2023-04-01T05:37:25;-22714.00;;;9.35;100.00
5296;BME280;2670;42.720;23.336;2023-04-01T05:39:52;-22712.38;;;9.29;100.00
5296;BME280;2670;42.720;23.336;2023-04-01T05:42:18;-22711.34;;;9.26;100.00
5296;BME280;2670;42.720;23.336;2023-04-01T05:44:45;-22712.38;;;9.29;100.00
5296;BME280;2670;42.720;23.336;2023-04-01T05:47:12;-22716.09;;;9.42;97.28
5296;BME280;2670;42.720;23.336;2023-04-01T05:49:40;-22723.78;;;9.68;94.01
5296;BME280;2670;42.720;23.336;2023-04-01T05:52:07;-22723.06;;;9.66;95.21
5296;BME280;2670;42.720;23.336;2023-04-01T05:54:34;-22725.88;;;9.76;95.21
5296;BME280;2670;42.720;23.336;2023-04-01T05:57:00;-22730.63;;;9.92;93.69
5296;BME280;2670;42.720;23.336;2023-04-01T05:59:27;-22736.09;;;10.11;87.67
5296;BME280;2670;42.720;23.336;2023-04-01T06:01:56;-22737.59;;;10.16;87.00
5296;BME280;2670;42.720;23.336;2023-04-01T06:04:23;-22740.84;;;10.27;85.27
5296;BME280;2670;42.720;23.336;2023-04-01T06:06:52;-22744.25;;;10.39;84.11
5296;BME280;2670;42.720;23.336;2023-04-01T06:09:23;-22745.44;;;10.43;84.87
5296;BME280;2670;42.720;23.336;2023-04-01T06:12:16;-22749.75;;;10.58;85.21
5296;BME280;2670;42.720;23.336;2023-04-01T06:14:52;-22752.09;;;10.66;85.58
5296;BME280;2670;42.720;23.336;2023-04-01T06:17:30;-22756.09;;;10.80;85.71
5296;BME280;2670;42.720;23.336;2023-04-01T06:20:12;-22759.34;;;10.91;82.37
5296;BME280;2670;42.720;23.336;2023-04-01T06:22:51;-22761.00;;;10.96;85.25
5296;BME280;2670;42.720;23.336;2023-04-01T06:25:32;-22763.94;;;11.07;81.58
5296;BME280;2670;42.720;23.336;2023-04-01T06:31:05;-22770.75;;;11.30;81.18
5296;BME280;2670;42.720;23.336;2023-04-01T06:33:50;-22774.31;;;11.42;79.96
5296;BME280;2670;42.720;23.336;2023-04-01T06:36:38;-22775.66;;;11.47;77.53
5296;BME280;2670;42.720;23.336;2023-04-01T06:39:20;-22777.28;;;11.53;76.56
5296;BME280;2670;42.720;23.336;2023-04-01T06:44:46;-22779.94;;;11.62;76.11
5296;BME280;2670;42.720;23.336;2023-04-01T06:47:27;-22781.41;;;11.67;77.99
5296;BME280;2670;42.720;23.336;2023-04-01T06:50:03;-22782.91;;;11.72;76.89
5296;BME280;2670;42.720;23.336;2023-04-01T06:52:38;-22783.63;;;11.75;76.77
5296;BME280;2670;42.720;23.336;2023-04-01T06:55:21;-22782.31;;;11.70;78.20
5296;BME280;2670;42.720;23.336;2023-04-01T06:57:52;-22782.31;;;11.70;78.12
5296;BME280;2670;42.720;23.336;2023-04-01T07:00:27;-22783.47;;;11.74;79.86
5296;BME280;2670;42.720;23.336;2023-04-01T07:03:02;-22783.03;;;11.72;80.35
5296;BME280;2670;42.720;23.336;2023-04-01T07:05:32;-22783.47;;;11.74;80.11
5296;BME280;2670;42.720;23.336;2023-04-01T07:08:02;-22782.91;;;11.72;81.91
5296;BME280;2670;42.720;23.336;2023-04-01T07:10:35;-22785.25;;;11.80;83.18
5296;BME280;2670;42.720;23.336;2023-04-01T07:13:13;-22789.13;;;11.93;81.59
5296;BME280;2670;42.720;23.336;2023-04-01T07:15:54;-22791.91;;;12.03;81.20
5296;BME280;2670;42.720;23.336;2023-04-01T07:18:30;-22792.97;;;12.07;81.54
5296;BME280;2670;42.720;23.336;2023-04-01T07:20:59;-22795.91;;;12.17;79.47
5296;BME280;2670;42.720;23.336;2023-04-01T07:23:31;-22794.72;;;12.13;79.68
5296;BME280;2670;42.720;23.336;2023-04-01T07:26:08;-22800.06;;;12.31;78.26
5296;BME280;2670;42.720;23.336;2023-04-01T07:28:39;-22800.94;;;12.34;78.06
5296;BME280;2670;42.720;23.336;2023-04-01T07:31:15;-22801.69;;;12.37;78.59
5296;BME280;2670;42.720;23.336;2023-04-01T07:33:52;-22806.13;;;12.52;77.95
5296;BME280;2670;42.720;23.336;2023-04-01T07:36:24;-22808.03;;;12.59;76.93
5296;BME280;2670;42.720;23.336;2023-04-01T07:38:59;-22810.84;;;12.68;74.59
5296;BME280;2670;42.720;23.336;2023-04-01T07:41:32;-22813.66;;;12.78;75.18
5296;BME280;2670;42.720;23.336;2023-04-01T07:44:10;-22815.72;;;12.85;74.56
5296;BME280;2670;42.720;23.336;2023-04-01T07:46:55;-22818.09;;;12.93;74.66
5296;BME280;2670;42.720;23.336;2023-04-01T07:49:30;-22816.75;;;12.89;75.29
5296;BME280;2670;42.720;23.336;2023-04-01T07:52:05;-22821.91;;;13.07;73.48
5296;BME280;2670;42.720;23.336;2023-04-01T07:54:38;-22821.19;;;13.04;74.13
5296;BME280;2670;42.720;23.336;2023-04-01T07:57:12;-22824.44;;;13.15;70.17
5296;BME280;2670;42.720;23.336;2023-04-01T07:59:47;-22822.81;;;13.10;71.52
5296;BME280;2670;42.720;23.336;2023-04-01T08:02:27;-22825.47;;;13.19;72.47
5296;BME280;2670;42.720;23.336;2023-04-01T08:05:05;-22826.78;;;13.24;71.00
5296;BME280;2670;42.720;23.336;2023-04-01T08:07:44;-22829.59;;;13.33;70.16
5296;BME280;2670;42.720;23.336;2023-04-01T08:10:18;-22830.19;;;13.35;70.37
5296;BME280;2670;42.720;23.336;2023-04-01T08:12:56;-22830.34;;;13.36;70.84
5296;BME280;2670;42.720;23.336;2023-04-01T08:15:28;-22831.22;;;13.39;69.43
5296;BME280;2670;42.720;23.336;2023-04-01T08:18:04;-22830.34;;;13.36;70.15
5296;BME280;2670;42.720;23.336;2023-04-01T08:20:39;-22832.25;;;13.42;69.56
5296;BME280;2670;42.720;23.336;2023-04-01T08:23:12;-22836.09;;;13.56;69.24
5296;BME280;2670;42.720;23.336;2023-04-01T08:25:45;-22836.69;;;13.58;69.35
5296;BME280;2670;42.720;23.336;2023-04-01T08:28:17;-22840.53;;;13.71;68.09
5296;BME280;2670;42.720;23.336;2023-04-01T08:30:49;-22841.56;;;13.75;68.58
5296;BME280;2670;42.720;23.336;2023-04-01T08:33:24;-22845.09;;;13.87;68.65
5296;BME280;2670;42.720;23.336;2023-04-01T08:35:56;-22846.44;;;13.91;69.25
5296;BME280;2670;42.720;23.336;2023-04-01T08:38:30;-22851.28;;;14.08;66.60
5296;BME280;2670;42.720;23.336;2023-04-01T08:41:00;-22855.88;;;14.24;65.00
5296;BME280;2670;42.720;23.336;2023-04-01T08:43:46;-22856.75;;;14.27;68.31
5296;BME280;2670;42.720;23.336;2023-04-01T08:46:29;-22862.50;;;14.47;64.03
5296;BME280;2670;42.720;23.336;2023-04-01T08:49:17;-22866.34;;;14.60;62.31
5296;BME280;2670;42.720;23.336;2023-04-01T08:52:22;-22873.28;;;14.84;62.37
5296;BME280;2670;42.720;23.336;2023-04-01T08:55:22;-22880.94;;;15.11;58.59
5296;BME280;2670;42.720;23.336;2023-04-01T08:58:00;-22885.94;;;15.28;59.01
5296;BME280;2670;42.720;23.336;2023-04-01T09:00:36;-22891.53;;;15.48;57.44
5296;BME280;2670;42.720;23.336;2023-04-01T09:03:23;-22899.78;;;15.76;54.70
5296;BME280;2670;42.720;23.336;2023-04-01T09:06:35;-22905.97;;;15.98;51.65
5296;BME280;2670;42.720;23.336;2023-04-01T09:09:47;-22901.25;;;15.81;51.91
5296;BME280;2670;42.720;23.336;2023-04-01T09:15:36;-22900.97;;;15.80;54.09
5296;BME280;2670;42.720;23.336;2023-04-01T09:18:19;-22900.38;;;15.78;51.68
5296;BME280;2670;42.720;23.336;2023-04-01T09:21:15;-22902.44;;;15.85;51.71
5296;BME280;2670;42.720;23.336;2023-04-01T09:24:13;-22903.03;;;15.87;52.52
5296;BME280;2670;42.720;23.336;2023-04-01T09:27:09;-22902.59;;;15.86;52.87
5296;BME280;2670;42.720;23.336;2023-04-01T09:29:54;-22903.16;;;15.88;52.81
5296;BME280;2670;42.720;23.336;2023-04-01T09:32:45;-22902.72;;;15.86;52.09
5296;BME280;2670;42.720;23.336;2023-04-01T09:35:22;-22901.13;;;15.81;51.51
5296;BME280;2670;42.720;23.336;2023-04-01T09:37:54;-22902.00;;;15.84;51.83
5296;BME280;2670;42.720;23.336;2023-04-01T09:40:37;-22902.88;;;15.87;50.52
5296;BME280;2670;42.720;23.336;2023-04-01T09:43:30;-22903.47;;;15.89;51.36
5296;BME280;2670;42.720;23.336;2023-04-01T09:46:18;-22904.78;;;15.93;51.50
5296;BME280;2670;42.720;23.336;2023-04-01T09:49:23;-22903.75;;;15.90;51.69
5296;BME280;2670;42.720;23.336;2023-04-01T09:52:02;-22903.31;;;15.88;51.23
5296;BME280;2670;42.720;23.336;2023-04-01T09:54:44;-22902.88;;;15.87;51.65
5296;BME280;2670;42.720;23.336;2023-04-01T10:00:37;-22904.19;;;15.91;51.10
5296;BME280;2670;42.720;23.336;2023-04-01T10:03:42;-22905.53;;;15.96;53.39
5296;BME280;2670;42.720;23.336;2023-04-01T10:07:06;-22902.72;;;15.86;54.60
5296;BME280;2670;42.720;23.336;2023-04-01T10:10:06;-22902.28;;;15.85;54.17
5296;BME280;2670;42.720;23.336;2023-04-01T10:16:24;-22903.16;;;15.88;47.95
5296;BME280;2670;42.720;23.336;2023-04-01T10:19:27;-22906.13;;;15.98;48.60
5296;BME280;2670;42.720;23.336;2023-04-01T10:22:17;-22906.56;;;16.00;50.26
5296;BME280;2670;42.720;23.336;2023-04-01T10:25:04;-22912.72;;;16.21;51.54
5296;BME280;2670;42.720;23.336;2023-04-01T10:27:45;-22911.56;;;16.17;53.71
5296;BME280;2670;42.720;23.336;2023-04-01T10:33:45;-22906.13;;;15.98;54.74
5296;BME280;2670;42.720;23.336;2023-04-01T10:36:37;-22903.63;;;15.89;54.62
5296;BME280;2670;42.720;23.336;2023-04-01T10:39:30;-22901.13;;;15.81;54.10
5296;BME280;2670;42.720;23.336;2023-04-01T10:42:34;-22900.97;;;15.80;53.91
5296;BME280;2670;42.720;23.336;2023-04-01T10:45:41;-22899.19;;;15.74;54.77
5296;BME280;2670;42.720;23.336;2023-04-01T10:48:28;-22899.19;;;15.74;53.72
5296;BME280;2670;42.720;23.336;2023-04-01T10:51:07;-22896.41;;;15.64;54.08
5296;BME280;2670;42.720;23.336;2023-04-01T10:56:38;-22895.81;;;15.62;53.72
5296;BME280;2670;42.720;23.336;2023-04-01T11:02:52;-22894.78;;;15.59;54.38
5296;BME280;2670;42.720;23.336;2023-04-01T11:05:57;-22893.59;;;15.55;54.17
5296;BME280;2670;42.720;23.336;2023-04-01T11:11:52;-22891.09;;;15.46;54.40
5296;BME280;2670;42.720;23.336;2023-04-01T11:18:02;-22890.94;;;15.45;53.75
5296;BME280;2670;42.720;23.336;2023-04-01T11:20:56;-22892.28;;;15.50;53.71
5296;BME280;2670;42.720;23.336;2023-04-01T11:23:37;-22892.28;;;15.50;54.57
5296;BME280;2670;42.720;23.336;2023-04-01T11:26:21;-22890.81;;;15.45;54.11
5296;BME280;2670;42.720;23.336;2023-04-01T11:31:57;-22888.44;;;15.37;53.38
5296;BME280;2670;42.720;23.336;2023-04-01T11:34:56;-22891.38;;;15.47;52.59
5296;BME280;2670;42.720;23.336;2023-04-01T11:37:35;-22887.25;;;15.33;54.81
5296;BME280;2670;42.720;23.336;2023-04-01T11:40:11;-22888.28;;;15.36;59.09
5296;BME280;2670;42.720;23.336;2023-04-01T11:42:45;-22878.00;;;15.01;67.93
5296;BME280;2670;42.720;23.336;2023-04-01T11:45:31;-22866.94;;;14.62;74.67
5296;BME280;2670;42.720;23.336;2023-04-01T11:48:41;-22845.41;;;13.88;79.88
5296;BME280;2670;42.720;23.336;2023-04-01T11:51:38;-22818.53;;;12.95;97.07
5296;BME280;2670;42.720;23.336;2023-04-01T11:54:22;-22800.94;;;12.34;100.00
5296;BME280;2670;42.720;23.336;2023-04-01T11:57:04;-22791.47;;;12.02;100.00
5296;BME280;2670;42.720;23.336;2023-04-01T11:59:55;-22786.59;;;11.85;100.00
5296;BME280;2670;42.720;23.336;2023-04-01T12:02:31;-22786.75;;;11.85;100.00
5296;BME280;2670;42.720;23.336;2023-04-01T12:05:14;-22786.00;;;11.83;100.00
5296;BME280;2670;42.720;23.336;2023-04-01T12:08:01;-22785.13;;;11.80;100.00
5296;BME280;2670;42.720;23.336;2023-04-01T12:10:37;-22786.44;;;11.84;100.00
5296;BME280;2670;42.720;23.336;2023-04-01T12:13:14;-22788.53;;;11.91;100.00
5296;BME280;2670;42.720;23.336;2023-04-01T12:15:56;-22783.94;;;11.76;100.00
5296;BME280;2670;42.720;23.336;2023-04-01T12:18:33;-22781.41;;;11.67;100.00
5296;BME280;2670;42.720;23.336;2023-04-01T12:21:13;-22777.41;;;11.53;100.00
5296;BME280;2670;42.720;23.336;2023-04-01T12:24:01;-22773.44;;;11.39;100.00
5296;BME280;2670;42.720;23.336;2023-04-01T12:26:46;-22779.06;;;11.59;100.00
5296;BME280;2670;42.720;23.336;2023-04-01T12:29:28;-22777.13;;;11.52;100.00
5296;BME280;2670;42.720;23.336;2023-04-01T12:32:03;-22775.06;;;11.45;100.00
5296;BME280;2670;42.720;23.336;2023-04-01T12:35:18;-22779.34;;;11.60;100.00
5296;BME280;2670;42.720;23.336;2023-04-01T12:37:54;-22775.34;;;11.46;100.00
5296;BME280;2670;42.720;23.336;2023-04-01T12:40:37;-22773.44;;;11.39;100.00
5296;BME280;2670;42.720;23.336;2023-04-01T12:43:20;-22771.66;;;11.33;100.00
5296;BME280;2670;42.720;23.336;2023-04-01T12:46:03;-22769.44;;;11.26;100.00
5296;BME280;2670;42.720;23.336;2023-04-01T12:48:56;-22771.81;;;11.34;100.00
5296;BME280;2670;42.720;23.336;2023-04-01T12:51:54;-22772.38;;;11.36;100.00
5296;BME280;2670;42.720;23.336;2023-04-01T12:58:02;-22773.28;;;11.39;100.00
5296;BME280;2670;42.720;23.336;2023-04-01T13:01:10;-22771.50;;;11.33;100.00
5296;BME280;2670;42.720;23.336;2023-04-01T13:03:53;-22780.09;;;11.62;100.00
5296;BME280;2670;42.720;23.336;2023-04-01T13:06:46;-22781.84;;;11.68;100.00
5296;BME280;2670;42.720;23.336;2023-04-01T13:09:25;-22779.63;;;11.61;100.00
5296;BME280;2670;42.720;23.336;2023-04-01T13:12:23;-22783.19;;;11.73;100.00
5296;BME280;2670;42.720;23.336;2023-04-01T13:18:08;-22787.19;;;11.87;100.00
5296;BME280;2670;42.720;23.336;2023-04-01T13:20:44;-22785.84;;;11.82;100.00
5296;BME280;2670;42.720;23.336;2023-04-01T13:23:33;-22783.78;;;11.75;100.00
5296;BME280;2670;42.720;23.336;2023-04-01T13:26:13;-22789.41;;;11.94;100.00
5296;BME280;2670;42.720;23.336;2023-04-01T13:28:49;-22789.25;;;11.94;100.00
5296;BME280;2670;42.720;23.336;2023-04-01T13:31:37;-22787.94;;;11.89;100.00
5296;BME280;2670;42.720;23.336;2023-04-01T13:34:16;-22790.00;;;11.96;100.00
5296;BME280;2670;42.720;23.336;2023-04-01T13:36:55;-22792.22;;;12.04;100.00
5296;BME280;2670;42.720;23.336;2023-04-01T13:39:42;-22796.81;;;12.20;100.00
5296;BME280;2670;42.720;23.336;2023-04-01T13:42:18;-22796.50;;;12.19;100.00
5296;BME280;2670;42.720;23.336;2023-04-01T13:44:50;-22800.50;;;12.33;100.00
5296;BME280;2670;42.720;23.336;2023-04-01T13:50:30;-22814.97;;;12.83;100.00
5296;BME280;2670;42.720;23.336;2023-04-01T13:53:21;-22820.16;;;13.01;100.00
5296;BME280;2670;42.720;23.336;2023-04-01T13:55:56;-22827.38;;;13.26;100.00
5296;BME280;2670;42.720;23.336;2023-04-01T13:58:38;-22834.31;;;13.50;100.00
5296;BME280;2670;42.720;23.336;2023-04-01T14:01:13;-22840.38;;;13.70;100.00
5296;BME280;2670;42.720;23.336;2023-04-01T14:06:59;-22848.63;;;13.99;100.00
5296;BME280;2670;42.720;23.336;2023-04-01T14:12:30;-22850.84;;;14.07;100.00
5296;BME280;2670;42.720;23.336;2023-04-01T14:15:14;-22852.31;;;14.12;100.00
5296;BME280;2670;42.720;23.336;2023-04-01T14:17:57;-22854.69;;;14.20;100.00
5296;BME280;2670;42.720;23.336;2023-04-01T14:20:39;-22859.41;;;14.36;100.00
5296;BME280;2670;42.720;23.336;2023-04-01T14:23:31;-22862.34;;;14.47;100.00
5296;BME280;2670;42.720;23.336;2023-04-01T14:26:22;-22863.84;;;14.52;100.00
5296;BME280;2670;42.720;23.336;2023-04-01T14:29:01;-22860.88;;;14.41;100.00
5296;BME280;2670;42.720;23.336;2023-04-01T14:31:43;-22859.13;;;14.35;100.00
5296;BME280;2670;42.720;23.336;2023-04-01T14:34:26;-22863.97;;;14.52;100.00
5296;BME280;2670;42.720;23.336;2023-04-01T14:37:08;-22865.47;;;14.57;100.00
5296;BME280;2670;42.720;23.336;2023-04-01T14:42:59;-22875.34;;;14.91;99.18
5296;BME280;2670;42.720;23.336;2023-04-01T14:46:02;-22878.88;;;15.04;98.83